createdAt,value
2023-05-19T00:03:05.060Z,9.30
2023-05-19T00:08:09.031Z,9.20
2023-05-19T00:13:12.066Z,9.00
2023-05-19T00:18:14.017Z,9.10
2023-05-19T00:23:15.922Z,9.10
2023-05-19T00:28:17.634Z,8.90
2023-05-19T00:33:19.256Z,9.00
2023-05-19T00:38:21.087Z,8.80
2023-05-19T00:43:22.729Z,8.60
2023-05-19T00:48:27.448Z,8.60
2023-05-19T00:53:29.472Z,8.70
2023-05-19T00:58:32.537Z,8.40
2023-05-19T01:03:35.620Z,8.40
2023-05-19T01:08:37.915Z,8.30
2023-05-19T01:13:41.956Z,8.30
2023-05-19T01:18:47.300Z,8.30
2023-05-19T01:24:01.462Z,8.20
2023-05-19T01:35:09.120Z,8.00
2023-05-19T01:40:10.959Z,7.80
2023-05-19T01:45:13.602Z,7.70
2023-05-19T01:50:15.394Z,7.80
2023-05-19T01:55:17.099Z,7.80
2023-05-19T02:00:27.039Z,7.70
2023-05-19T02:05:34.098Z,7.50
2023-05-19T02:10:37.226Z,7.60
2023-05-19T02:15:40.474Z,7.50
2023-05-19T02:20:42.486Z,7.40
2023-05-19T02:25:44.264Z,7.10
2023-05-19T02:30:45.954Z,7.00
2023-05-19T02:35:47.694Z,7.10
2023-05-19T02:40:52.363Z,7.20
2023-05-19T02:45:54.090Z,7.20
2023-05-19T02:50:55.808Z,7.00
2023-05-19T02:55:57.548Z,7.10
2023-05-19T03:00:59.171Z,6.90
2023-05-19T03:06:01.850Z,6.80
2023-05-19T03:11:03.658Z,6.70
2023-05-19T03:16:07.992Z,6.60
2023-05-19T03:21:09.772Z,6.60
2023-05-19T03:26:12.609Z,6.70
2023-05-19T03:31:14.277Z,6.70
2023-05-19T03:36:15.934Z,6.60
2023-05-19T03:41:17.593Z,6.50
2023-05-19T03:46:19.399Z,6.40
2023-05-19T03:51:21.288Z,6.60
2023-05-19T03:56:24.926Z,6.60
2023-05-19T04:01:26.648Z,6.50
2023-05-19T04:06:28.330Z,6.30
2023-05-19T04:11:30.006Z,6.50
2023-05-19T04:16:32.105Z,6.40
2023-05-19T04:21:33.907Z,6.60
2023-05-19T04:26:36.022Z,6.50
2023-05-19T04:31:37.783Z,6.50
2023-05-19T04:36:39.562Z,6.60
2023-05-19T04:41:44.343Z,6.70
2023-05-19T04:46:46.164Z,6.70
2023-05-19T04:51:50.318Z,6.80
2023-05-19T04:56:52.503Z,7.00
2023-05-19T05:01:54.324Z,7.10
2023-05-19T05:06:56.090Z,7.30
2023-05-19T05:11:58.124Z,7.40
2023-05-19T05:17:00.055Z,7.50
2023-05-19T05:22:01.837Z,7.60
2023-05-19T05:27:03.917Z,7.70
2023-05-19T05:32:05.829Z,7.90
2023-05-19T05:37:07.574Z,7.90
2023-05-19T05:42:09.650Z,8.10
2023-05-19T05:47:12.270Z,8.20
2023-05-19T05:52:15.206Z,8.40
2023-05-19T05:57:17.144Z,8.50
2023-05-19T06:02:19.039Z,8.60
2023-05-19T06:07:21.231Z,8.70
2023-05-19T06:12:23.039Z,8.80
2023-05-19T06:17:24.771Z,9.00
2023-05-19T06:22:27.805Z,9.20
2023-05-19T06:27:32.648Z,9.30
2023-05-19T06:32:36.382Z,9.50
2023-05-19T06:37:39.338Z,9.70
2023-05-19T06:42:41.058Z,10.00
2023-05-19T06:47:44.579Z,10.10
2023-05-19T06:52:47.088Z,10.40
2023-05-19T06:57:48.747Z,10.50
2023-05-19T07:02:50.651Z,10.80
2023-05-19T07:07:52.407Z,11.00
2023-05-19T07:12:54.144Z,11.20
2023-05-19T07:17:55.926Z,11.40
2023-05-19T07:22:57.665Z,11.50
2023-05-19T07:28:00.655Z,11.70
2023-05-19T07:33:05.539Z,11.70
2023-05-19T07:38:07.522Z,12.10
2023-05-19T07:43:09.317Z,12.30
2023-05-19T07:48:11.035Z,12.50
2023-05-19T07:53:12.918Z,12.60
2023-05-19T07:58:14.899Z,13.00
2023-05-19T08:03:18.272Z,13.10
2023-05-19T08:08:20.286Z,13.10
2023-05-19T08:13:22.255Z,13.20
2023-05-19T08:18:23.959Z,13.40
2023-05-19T08:23:26.013Z,13.60
2023-05-19T08:28:27.676Z,13.70
2023-05-19T08:33:29.576Z,13.90
2023-05-19T08:38:31.209Z,14.20
2023-05-19T08:43:32.899Z,14.20
2023-05-19T08:48:35.401Z,14.30
2023-05-19T08:53:39.946Z,14.60
2023-05-19T08:58:44.070Z,15.00
2023-05-19T09:03:47.407Z,15.00
2023-05-19T09:08:49.551Z,15.30
2023-05-19T09:13:51.359Z,15.50
2023-05-19T09:19:00.937Z,15.50
2023-05-19T09:24:06.426Z,15.50
2023-05-19T09:29:15.926Z,15.20
2023-05-19T09:34:17.949Z,15.60
2023-05-19T09:39:20.229Z,15.60
2023-05-19T09:44:29.541Z,15.40
2023-05-19T09:49:32.732Z,15.80
2023-05-19T09:54:34.618Z,16.70
2023-05-19T09:59:38.945Z,16.30
2023-05-19T10:04:41.291Z,16.10
2023-05-19T10:09:43.668Z,16.50
2023-05-19T10:14:45.639Z,16.20
2023-05-19T10:19:47.783Z,16.40
2023-05-19T10:24:49.489Z,16.70
2023-05-19T10:29:51.871Z,17.00
2023-05-19T10:34:53.564Z,17.10
2023-05-19T10:39:55.832Z,17.20
2023-05-19T10:45:20.586Z,17.40
2023-05-19T10:50:22.496Z,17.40
2023-05-19T10:55:43.236Z,17.80
2023-05-19T11:00:44.873Z,18.40
2023-05-19T11:05:49.919Z,18.40
2023-05-19T11:10:51.996Z,18.40
2023-05-19T11:15:56.228Z,18.20
2023-05-19T11:21:02.145Z,18.00
2023-05-19T11:26:03.971Z,17.80
2023-05-19T11:31:08.137Z,18.30
2023-05-19T11:36:10.854Z,18.30
2023-05-19T11:41:15.588Z,18.30
2023-05-19T11:46:18.059Z,18.30
2023-05-19T11:51:21.053Z,18.80
2023-05-19T11:56:22.721Z,18.70
2023-05-19T12:01:26.912Z,18.70
2023-05-19T12:06:29.655Z,18.60
2023-05-19T12:11:31.821Z,18.90
2023-05-19T12:16:34.597Z,18.70
2023-05-19T12:21:36.416Z,18.50
2023-05-19T12:26:38.203Z,18.70
2023-05-19T12:31:40.207Z,19.40
2023-05-19T12:36:42.506Z,19.00
2023-05-19T12:41:47.270Z,19.50
2023-05-19T12:46:51.904Z,19.20
2023-05-19T12:51:54.040Z,19.70
2023-05-19T12:56:57.584Z,19.30
2023-05-19T13:01:59.485Z,20.30
2023-05-19T13:07:01.714Z,19.80
2023-05-19T13:12:04.778Z,20.20
2023-05-19T13:17:06.639Z,20.10
2023-05-19T13:22:08.549Z,20.00
2023-05-19T13:27:13.335Z,20.00
2023-05-19T13:32:15.028Z,20.10
2023-05-19T13:37:16.798Z,20.50
2023-05-19T13:42:18.577Z,20.30
2023-05-19T13:47:20.392Z,20.60
2023-05-19T13:52:22.133Z,20.50
2023-05-19T13:57:24.287Z,20.70
2023-05-19T14:02:27.110Z,20.60
2023-05-19T14:07:28.938Z,20.60
2023-05-19T14:12:43.150Z,20.40
2023-05-19T14:17:53.445Z,20.40
2023-05-19T14:22:56.276Z,20.50
2023-05-19T14:28:01.077Z,20.30
2023-05-19T14:33:03.219Z,19.90
2023-05-19T14:38:06.405Z,20.50
2023-05-19T14:43:08.387Z,20.50
2023-05-19T14:48:12.004Z,20.70
2023-05-19T14:53:13.825Z,20.70
2023-05-19T14:58:27.576Z,20.70
2023-05-19T15:03:30.479Z,20.90
2023-05-19T15:08:33.398Z,20.90
2023-05-19T15:13:35.068Z,20.70
2023-05-19T15:18:37.835Z,20.70
2023-05-19T15:23:39.629Z,20.50
2023-05-19T15:28:41.458Z,20.30
2023-05-19T15:33:43.123Z,20.40
2023-05-19T15:38:44.886Z,20.70
2023-05-19T15:43:46.651Z,21.10
2023-05-19T15:48:48.436Z,20.90
2023-05-19T15:53:50.275Z,20.60
2023-05-19T15:58:52.036Z,20.50
2023-05-19T16:03:53.840Z,20.40
2023-05-19T16:08:56.735Z,20.20
2023-05-19T16:13:59.457Z,20.00
2023-05-19T16:19:02.226Z,20.00
2023-05-19T16:24:04.178Z,19.90
2023-05-19T16:29:07.826Z,20.10
2023-05-19T16:34:09.548Z,20.00
2023-05-19T16:39:11.290Z,20.00
2023-05-19T16:44:14.648Z,19.80
2023-05-19T16:49:16.454Z,19.60
2023-05-19T16:54:18.503Z,19.60
2023-05-19T16:59:20.198Z,19.50
2023-05-19T17:04:22.953Z,19.30
2023-05-19T17:09:26.327Z,19.30
2023-05-19T17:14:29.075Z,19.50
2023-05-19T17:19:31.409Z,19.70
2023-05-19T17:24:33.358Z,19.70
2023-05-19T17:29:36.895Z,19.80
2023-05-19T17:34:39.788Z,19.80
2023-05-19T17:39:42.465Z,19.60
2023-05-19T17:44:45.205Z,19.30
2023-05-19T17:49:48.005Z,19.20
2023-05-19T17:54:50.572Z,19.10
2023-05-19T17:59:52.443Z,19.00
2023-05-19T18:04:54.341Z,19.00
2023-05-19T18:09:56.353Z,18.90
2023-05-19T18:14:58.076Z,18.80
2023-05-19T18:20:02.073Z,18.70
2023-05-19T18:25:06.052Z,18.60
2023-05-19T18:30:08.150Z,18.50
2023-05-19T18:35:10.083Z,18.40
2023-05-19T18:40:11.930Z,18.30
2023-05-19T18:45:13.660Z,18.10
2023-05-19T18:50:15.361Z,18.00
2023-05-19T18:55:17.196Z,17.80
2023-05-19T19:00:20.074Z,17.70
2023-05-19T19:05:24.129Z,17.50
2023-05-19T19:10:29.891Z,17.50
2023-05-19T19:15:33.772Z,17.30
2023-05-19T19:20:35.696Z,17.20
2023-05-19T19:25:38.570Z,17.30
2023-05-19T19:30:40.406Z,17.20
2023-05-19T19:35:43.943Z,17.20
2023-05-19T19:40:45.608Z,17.10
2023-05-19T19:45:47.271Z,16.90
2023-05-19T19:50:53.422Z,16.80
2023-05-19T19:55:58.800Z,16.70
2023-05-19T20:01:02.455Z,16.60
2023-05-19T20:06:08.609Z,16.50
2023-05-19T20:11:10.328Z,16.40
2023-05-19T20:16:13.121Z,16.30
2023-05-19T20:21:14.852Z,16.30
2023-05-19T20:26:17.069Z,16.20
2023-05-19T20:31:18.825Z,16.00
2023-05-19T20:36:20.943Z,15.80
2023-05-19T20:41:22.594Z,15.70
2023-05-19T20:46:24.237Z,15.60
2023-05-19T20:51:27.051Z,15.60
2023-05-19T20:56:28.716Z,15.60
2023-05-19T21:01:30.513Z,15.60
2023-05-19T21:06:32.357Z,15.60
2023-05-19T21:11:34.136Z,15.50
2023-05-19T21:16:38.771Z,15.40
2023-05-19T21:21:42.754Z,15.30
2023-05-19T21:26:44.427Z,15.10
2023-05-19T21:31:46.049Z,14.90
2023-05-19T21:36:49.403Z,14.80
2023-05-19T21:41:51.656Z,14.60
2023-05-19T21:46:53.430Z,14.60
2023-05-19T21:51:55.585Z,14.40
2023-05-19T21:56:57.238Z,14.30
2023-05-19T22:01:58.964Z,14.50
2023-05-19T22:07:00.689Z,14.60
2023-05-19T22:12:02.446Z,15.10
2023-05-19T22:17:04.190Z,15.20
2023-05-19T22:22:13.894Z,15.10
2023-05-19T22:27:16.336Z,15.00
2023-05-19T22:32:19.415Z,14.80
2023-05-19T22:37:22.391Z,14.70
2023-05-19T22:42:24.227Z,14.40
2023-05-19T22:47:25.980Z,14.20
2023-05-19T22:52:27.806Z,14.00
2023-05-19T22:57:29.570Z,13.90
2023-05-19T23:02:31.298Z,13.90
2023-05-19T23:07:33.122Z,13.80
2023-05-19T23:12:34.883Z,13.60
2023-05-19T23:17:36.926Z,13.50
2023-05-19T23:22:38.751Z,13.50
2023-05-19T23:27:40.939Z,13.50
2023-05-19T23:32:42.674Z,13.40
2023-05-19T23:37:44.429Z,13.20
2023-05-19T23:42:46.293Z,13.20
2023-05-19T23:47:48.028Z,13.20
2023-05-19T23:52:49.713Z,13.00
2023-05-19T23:57:51.393Z,13.00
